createdAt,value
2023-04-09T00:00:26.138Z,13.50
2023-04-09T00:05:49.336Z,13.80
2023-04-09T00:10:53.399Z,14.00
2023-04-09T00:15:56.493Z,14.40
2023-04-09T00:20:59.492Z,15.40
2023-04-09T00:26:02.389Z,16.20
2023-04-09T00:31:05.697Z,15.50
2023-04-09T00:36:08.659Z,15.40
2023-04-09T00:41:11.720Z,16.00
2023-04-09T00:46:14.824Z,16.30
2023-04-09T00:51:18.006Z,16.40
2023-04-09T00:56:21.616Z,16.70
2023-04-09T01:01:24.586Z,17.30
2023-04-09T01:06:52.219Z,16.00
2023-04-09T01:12:36.994Z,16.00
2023-04-09T01:17:48.619Z,15.30
2023-04-09T01:23:19.042Z,15.10
2023-04-09T01:28:36.993Z,14.70
2023-04-09T01:33:41.087Z,14.90
2023-04-09T01:38:44.158Z,14.90
2023-04-09T01:43:48.248Z,15.40
2023-04-09T01:48:51.361Z,14.70
2023-04-09T01:53:54.612Z,15.50
2023-04-09T01:58:57.418Z,16.00
2023-04-09T02:04:05.318Z,16.00
2023-04-09T02:09:09.430Z,16.60
2023-04-09T02:14:12.240Z,17.80
2023-04-09T02:19:15.720Z,17.20
2023-04-09T02:24:18.623Z,18.10
2023-04-09T02:29:21.631Z,18.20
2023-04-09T02:34:24.688Z,18.60
2023-04-09T02:39:27.640Z,19.20
2023-04-09T02:44:30.722Z,19.80
2023-04-09T02:49:33.608Z,19.00
2023-04-09T02:54:36.509Z,19.20
2023-04-09T02:59:40.746Z,19.20
2023-04-09T03:04:43.581Z,20.00
2023-04-09T03:09:46.437Z,20.80
2023-04-09T03:14:49.263Z,20.50
2023-04-09T03:19:52.492Z,20.20
2023-04-09T03:24:56.253Z,20.70
2023-04-09T03:29:59.208Z,20.60
2023-04-09T03:35:02.271Z,22.10
2023-04-09T03:40:06.537Z,20.80
2023-04-09T03:45:09.799Z,19.60
2023-04-09T03:50:12.718Z,20.40
2023-04-09T03:55:15.572Z,19.40
2023-04-09T04:00:18.540Z,18.80
2023-04-09T04:05:25.521Z,19.00
2023-04-09T04:10:28.664Z,18.40
2023-04-09T04:15:31.720Z,17.90
2023-04-09T04:20:35.116Z,19.20
2023-04-09T04:25:42.019Z,19.20
2023-04-09T04:30:45.063Z,20.40
2023-04-09T04:35:47.952Z,20.40
2023-04-09T04:40:50.852Z,22.90
2023-04-09T04:45:54.166Z,22.20
2023-04-09T04:51:01.397Z,23.10
2023-04-09T04:56:05.345Z,23.90
2023-04-09T05:01:08.409Z,26.10
2023-04-09T05:06:12.092Z,25.20
2023-04-09T05:11:17.010Z,26.10
2023-04-09T05:16:20.876Z,24.70
2023-04-09T05:21:23.715Z,25.00
2023-04-09T05:26:27.166Z,24.60
2023-04-09T05:31:30.033Z,26.10
2023-04-09T05:36:32.904Z,28.60
2023-04-09T05:41:37.517Z,27.80
2023-04-09T05:46:40.594Z,27.70
2023-04-09T05:51:43.458Z,27.00
2023-04-09T05:56:46.308Z,26.00
2023-04-09T06:01:49.313Z,22.60
2023-04-09T06:06:52.311Z,20.60
2023-04-09T06:11:56.520Z,18.60
2023-04-09T06:17:00.080Z,19.20
2023-04-09T06:22:03.015Z,20.00
2023-04-09T06:27:06.100Z,20.60
2023-04-09T06:32:08.996Z,22.30
2023-04-09T06:37:11.872Z,19.60
2023-04-09T06:42:14.846Z,15.30
2023-04-09T06:47:17.851Z,14.60
2023-04-09T06:52:20.787Z,14.50
2023-04-09T06:57:23.855Z,13.50
2023-04-09T07:02:27.756Z,14.10
2023-04-09T07:07:31.771Z,13.80
2023-04-09T07:12:35.723Z,13.70
2023-04-09T07:17:38.729Z,12.80
2023-04-09T07:22:43.372Z,13.00
2023-04-09T07:27:46.315Z,12.60
2023-04-09T07:32:49.272Z,12.20
2023-04-09T07:37:52.303Z,13.20
2023-04-09T07:42:56.020Z,13.10
2023-04-09T07:47:59.067Z,11.90
2023-04-09T07:53:02.116Z,11.60
2023-04-09T07:58:06.068Z,10.10
2023-04-09T08:03:10.091Z,10.00
2023-04-09T08:08:13.357Z,9.80
2023-04-09T08:13:17.016Z,10.30
2023-04-09T08:18:19.901Z,9.50
2023-04-09T08:23:22.731Z,8.40
2023-04-09T08:28:25.698Z,8.70
2023-04-09T08:33:28.574Z,7.30
2023-04-09T08:38:31.946Z,8.30
2023-04-09T08:43:56.487Z,7.60
2023-04-09T08:48:57.971Z,8.00
2023-04-09T08:54:04.368Z,8.40
2023-04-09T08:59:09.584Z,8.40
2023-04-09T09:04:12.665Z,7.80
2023-04-09T09:09:16.697Z,7.60
2023-04-09T09:14:19.874Z,8.10
2023-04-09T09:19:25.758Z,8.00
2023-04-09T09:24:29.049Z,7.80
2023-04-09T09:29:31.994Z,7.80
2023-04-09T09:34:34.824Z,7.40
2023-04-09T09:39:46.661Z,7.70
2023-04-09T09:44:50.638Z,7.70
2023-04-09T09:49:54.650Z,7.10
2023-04-09T09:54:58.942Z,7.10
2023-04-09T10:00:03.896Z,5.90
2023-04-09T10:05:07.711Z,6.60
2023-04-09T10:10:10.696Z,7.60
2023-04-09T10:15:13.649Z,7.50
2023-04-09T10:21:10.139Z,7.40
2023-04-09T10:26:12.946Z,7.20
2023-04-09T10:31:16.035Z,7.10
2023-04-09T10:36:19.072Z,8.00
2023-04-09T10:41:23.634Z,6.90
2023-04-09T10:46:36.866Z,7.10
2023-04-09T10:51:40.435Z,7.40
2023-04-09T10:57:24.617Z,8.20
2023-04-09T11:02:45.733Z,7.80
2023-04-09T11:08:08.207Z,7.60
2023-04-09T11:13:15.832Z,7.20
2023-04-09T11:18:26.686Z,6.80
2023-04-09T11:23:29.792Z,6.50
2023-04-09T11:28:34.750Z,6.80
2023-04-09T11:33:37.684Z,6.80
2023-04-09T11:38:40.497Z,6.20
2023-04-09T11:43:43.455Z,6.80
2023-04-09T11:48:46.852Z,6.20
2023-04-09T11:53:49.866Z,6.20
2023-04-09T11:58:52.790Z,6.00
2023-04-09T12:03:56.324Z,6.60
2023-04-09T12:08:59.628Z,6.00
2023-04-09T12:14:03.063Z,5.90
2023-04-09T12:19:09.828Z,5.70
2023-04-09T12:24:13.049Z,5.80
2023-04-09T12:29:20.690Z,5.70
2023-04-09T12:34:23.493Z,5.60
2023-04-09T12:39:26.453Z,5.40
2023-04-09T12:44:29.305Z,5.30
2023-04-09T12:49:33.155Z,5.10
2023-04-09T12:54:36.237Z,5.10
2023-04-09T12:59:39.080Z,4.70
2023-04-09T13:04:42.785Z,4.20
2023-04-09T13:09:46.131Z,4.50
2023-04-09T13:14:49.838Z,5.10
2023-04-09T13:19:52.826Z,4.80
2023-04-09T13:24:55.780Z,4.60
2023-04-09T13:29:58.697Z,5.00
2023-04-09T13:35:01.847Z,5.10
2023-04-09T13:40:06.041Z,5.70
2023-04-09T13:45:09.372Z,5.60
2023-04-09T13:50:13.810Z,5.60
2023-04-09T13:55:16.754Z,6.10
2023-04-09T14:00:20.733Z,5.80
2023-04-09T14:05:23.621Z,5.50
2023-04-09T14:10:27.672Z,5.80
2023-04-09T14:15:30.526Z,4.80
2023-04-09T14:20:35.610Z,4.30
2023-04-09T14:25:38.634Z,3.90
2023-04-09T14:30:41.511Z,3.90
2023-04-09T14:35:44.447Z,3.80
2023-04-09T14:40:47.526Z,3.40
2023-04-09T14:45:50.663Z,4.10
2023-04-09T14:50:53.549Z,3.30
2023-04-09T14:55:56.408Z,3.60
2023-04-09T15:00:59.256Z,3.10
2023-04-09T15:06:02.190Z,3.20
2023-04-09T15:11:05.335Z,2.80
2023-04-09T15:16:08.535Z,2.50
2023-04-09T15:21:11.478Z,2.70
2023-04-09T15:26:14.341Z,4.40
2023-04-09T15:31:17.466Z,3.10
2023-04-09T15:36:20.438Z,3.40
2023-04-09T15:41:24.156Z,3.30
2023-04-09T15:46:27.130Z,3.00
2023-04-09T15:51:30.098Z,3.00
2023-04-09T15:56:33.119Z,3.20
2023-04-09T16:01:36.374Z,5.10
2023-04-09T16:06:39.639Z,4.80
2023-04-09T16:11:42.556Z,4.60
2023-04-09T16:16:49.985Z,3.70
2023-04-09T16:21:53.250Z,3.10
2023-04-09T16:26:57.033Z,3.00
2023-04-09T16:31:59.968Z,3.30
2023-04-09T16:37:03.017Z,3.50
2023-04-09T16:42:05.989Z,3.40
2023-04-09T16:47:09.207Z,3.60
2023-04-09T16:52:12.103Z,3.80
2023-04-09T16:57:15.611Z,3.60
2023-04-09T17:02:21.727Z,3.50
2023-04-09T17:07:24.834Z,4.00
2023-04-09T17:12:27.854Z,3.90
2023-04-09T17:17:31.525Z,3.70
2023-04-09T17:22:35.318Z,4.10
2023-04-09T17:27:38.485Z,4.20
2023-04-09T17:32:43.758Z,4.70
2023-04-09T17:37:46.903Z,4.30
2023-04-09T17:42:50.033Z,4.10
2023-04-09T17:47:53.226Z,3.70
2023-04-09T17:52:56.767Z,5.20
2023-04-09T17:57:59.646Z,5.60
2023-04-09T18:03:03.092Z,6.60
2023-04-09T18:08:07.370Z,6.90
2023-04-09T18:13:10.700Z,5.20
2023-04-09T18:18:13.619Z,6.10
2023-04-09T18:23:16.869Z,6.50
2023-04-09T18:28:19.760Z,6.80
2023-04-09T18:33:22.961Z,7.10
2023-04-09T18:38:28.699Z,6.60
2023-04-09T18:43:32.008Z,5.90
2023-04-09T18:48:35.197Z,6.80
2023-04-09T18:53:38.132Z,7.60
2023-04-09T18:58:42.210Z,7.00
2023-04-09T19:03:46.596Z,7.70
2023-04-09T19:08:50.406Z,7.90
2023-04-09T19:13:53.885Z,8.00
2023-04-09T19:18:56.823Z,7.30
2023-04-09T19:24:00.432Z,6.80
2023-04-09T19:29:05.379Z,7.50
2023-04-09T19:34:10.770Z,6.50
2023-04-09T19:39:13.842Z,6.50
2023-04-09T19:44:16.786Z,6.40
2023-04-09T19:49:20.537Z,7.00
2023-04-09T19:54:23.681Z,6.60
2023-04-09T19:59:26.573Z,7.70
2023-04-09T20:04:31.055Z,7.70
2023-04-09T20:09:35.794Z,8.30
2023-04-09T20:14:39.461Z,8.50
2023-04-09T20:19:42.623Z,8.90
2023-04-09T20:24:45.708Z,9.50
2023-04-09T20:29:49.543Z,10.50
2023-04-09T20:34:52.440Z,9.20
2023-04-09T20:39:55.751Z,10.30
2023-04-09T20:45:01.372Z,10.40
2023-04-09T20:50:05.929Z,11.40
2023-04-09T20:55:09.358Z,12.20
2023-04-09T21:00:13.128Z,11.70
2023-04-09T21:05:23.288Z,12.30
2023-04-09T21:10:27.283Z,13.60
2023-04-09T21:15:30.480Z,12.10
2023-04-09T21:20:33.300Z,12.10
2023-04-09T21:25:36.382Z,11.70
2023-04-09T21:30:39.372Z,11.30
2023-04-09T21:35:42.218Z,12.90
2023-04-09T21:40:48.223Z,11.60
2023-04-09T21:45:51.208Z,10.90
2023-04-09T21:50:54.135Z,11.90
2023-04-09T21:55:57.081Z,13.80
2023-04-09T22:00:59.951Z,13.50
2023-04-09T22:06:03.111Z,11.40
2023-04-09T22:11:05.966Z,11.40
2023-04-09T22:16:09.185Z,12.60
2023-04-09T22:21:16.592Z,13.40
2023-04-09T22:26:19.842Z,13.10
2023-04-09T22:31:22.955Z,13.10
2023-04-09T22:36:27.322Z,13.50
2023-04-09T22:41:30.210Z,14.00
2023-04-09T22:46:34.889Z,15.00
2023-04-09T22:51:40.179Z,15.80
2023-04-09T22:56:45.367Z,16.50
2023-04-09T23:01:48.692Z,16.90
2023-04-09T23:06:51.669Z,17.60
2023-04-09T23:11:54.593Z,16.10
2023-04-09T23:16:57.997Z,15.70
2023-04-09T23:22:01.004Z,14.70
2023-04-09T23:27:03.966Z,15.50
2023-04-09T23:32:07.078Z,15.90
2023-04-09T23:37:10.280Z,16.20
2023-04-09T23:42:13.090Z,16.40
2023-04-09T23:47:16.512Z,15.80
2023-04-09T23:52:19.561Z,15.90
2023-04-09T23:57:22.558Z,15.60
